createdAt,value
2023-03-02T00:00:42.184Z,33.23
2023-03-02T00:03:10.459Z,33.07
2023-03-02T00:05:41.061Z,33.28
2023-03-02T00:08:08.250Z,33.09
2023-03-02T00:10:36.189Z,33.01
2023-03-02T00:13:03.367Z,33.16
2023-03-02T00:15:29.935Z,33.21
2023-03-02T00:17:56.482Z,32.97
2023-03-02T00:20:23.019Z,32.99
2023-03-02T00:22:50.008Z,33.00
2023-03-02T00:25:17.503Z,32.99
2023-03-02T00:27:44.756Z,33.06
2023-03-02T00:30:12.886Z,33.10
2023-03-02T00:32:40.337Z,33.10
2023-03-02T00:35:07.503Z,33.00
2023-03-02T00:37:36.839Z,33.04
2023-03-02T00:40:06.677Z,32.91
2023-03-02T00:42:34.068Z,33.13
2023-03-02T00:45:01.596Z,33.05
2023-03-02T00:47:33.844Z,33.09
2023-03-02T00:50:00.897Z,32.98
2023-03-02T00:52:29.484Z,33.05
2023-03-02T00:54:55.993Z,33.07
2023-03-02T00:57:22.888Z,32.86
2023-03-02T00:59:49.433Z,33.01
2023-03-02T01:02:15.941Z,33.01
2023-03-02T01:04:43.738Z,33.00
2023-03-02T01:07:12.723Z,32.80
2023-03-02T01:09:41.333Z,33.03
2023-03-02T01:12:11.001Z,32.78
2023-03-02T01:14:40.060Z,32.89
2023-03-02T01:17:07.647Z,32.86
2023-03-02T01:19:34.157Z,33.10
2023-03-02T01:22:00.741Z,32.69
2023-03-02T01:24:27.314Z,32.96
2023-03-02T01:26:53.995Z,32.83
2023-03-02T01:29:20.708Z,32.63
2023-03-02T01:31:47.471Z,32.67
2023-03-02T01:34:14.065Z,32.80
2023-03-02T01:36:40.574Z,32.61
2023-03-02T01:39:07.076Z,32.76
2023-03-02T01:41:33.603Z,32.67
2023-03-02T01:44:00.169Z,32.69
2023-03-02T01:46:30.469Z,32.60
2023-03-02T01:48:59.057Z,32.70
2023-03-02T01:51:27.498Z,32.72
2023-03-02T01:53:59.101Z,32.66
2023-03-02T01:56:34.810Z,32.65
2023-03-02T01:59:06.510Z,32.65
2023-03-02T02:01:35.868Z,32.58
2023-03-02T02:04:02.902Z,32.56
2023-03-02T02:06:37.449Z,32.58
2023-03-02T02:09:08.345Z,32.65
2023-03-02T02:11:35.166Z,32.58
2023-03-02T02:14:03.270Z,32.54
2023-03-02T02:16:34.336Z,32.52
2023-03-02T02:19:02.281Z,32.81
2023-03-02T02:21:29.495Z,32.66
2023-03-02T02:24:12.015Z,32.72
2023-03-02T02:26:54.482Z,32.54
2023-03-02T02:29:26.155Z,32.54
2023-03-02T02:32:12.206Z,32.67
2023-03-02T02:34:50.973Z,32.54
2023-03-02T02:37:23.926Z,32.63
2023-03-02T02:39:51.676Z,32.51
2023-03-02T02:42:27.371Z,32.51
2023-03-02T02:44:57.864Z,32.63
2023-03-02T02:47:24.934Z,32.47
2023-03-02T02:49:53.927Z,32.55
2023-03-02T02:52:23.214Z,32.65
2023-03-02T02:54:52.200Z,32.53
2023-03-02T02:57:20.715Z,32.63
2023-03-02T02:59:50.834Z,32.52
2023-03-02T03:02:21.786Z,32.51
2023-03-02T03:04:48.570Z,32.46
2023-03-02T03:07:25.368Z,32.63
2023-03-02T03:10:02.070Z,32.68
2023-03-02T03:12:31.930Z,32.63
2023-03-02T03:15:00.111Z,32.83
2023-03-02T03:17:27.017Z,32.62
2023-03-02T03:19:53.535Z,32.70
2023-03-02T03:22:20.118Z,32.79
2023-03-02T03:24:46.718Z,32.58
2023-03-02T03:27:15.758Z,32.82
2023-03-02T03:29:44.994Z,32.72
2023-03-02T03:32:11.596Z,32.71
2023-03-02T03:34:40.877Z,32.94
2023-03-02T03:37:13.894Z,32.54
2023-03-02T03:39:40.964Z,32.60
2023-03-02T03:42:07.690Z,33.04
2023-03-02T03:44:34.529Z,32.68
2023-03-02T03:47:01.063Z,32.53
2023-03-02T03:49:27.654Z,32.63
2023-03-02T03:51:54.329Z,32.62
2023-03-02T03:54:20.879Z,32.74
2023-03-02T03:56:49.964Z,32.55
2023-03-02T03:59:20.275Z,32.71
2023-03-02T04:01:49.704Z,32.67
2023-03-02T04:04:20.779Z,32.68
2023-03-02T04:06:47.447Z,32.59
2023-03-02T04:09:15.437Z,32.74
2023-03-02T04:11:43.663Z,32.67
2023-03-02T04:14:11.238Z,32.62
2023-03-02T04:16:38.959Z,32.69
2023-03-02T04:19:09.671Z,32.53
2023-03-02T04:21:41.756Z,32.63
2023-03-02T04:24:09.245Z,32.66
2023-03-02T04:26:37.318Z,32.56
2023-03-02T04:29:04.873Z,32.70
2023-03-02T04:31:31.597Z,32.61
2023-03-02T04:33:58.839Z,32.46
2023-03-02T04:36:26.744Z,32.63
2023-03-02T04:38:53.433Z,32.56
2023-03-02T04:41:19.943Z,32.65
2023-03-02T04:43:46.544Z,32.41
2023-03-02T04:46:19.525Z,32.55
2023-03-02T04:48:46.071Z,32.39
2023-03-02T04:51:24.101Z,32.54
2023-03-02T04:53:56.606Z,32.44
2023-03-02T04:56:23.306Z,32.40
2023-03-02T04:58:50.334Z,32.59
2023-03-02T05:01:18.620Z,32.57
2023-03-02T05:03:46.031Z,32.46
2023-03-02T05:06:12.656Z,32.32
2023-03-02T05:08:39.675Z,32.34
2023-03-02T05:11:07.880Z,32.24
2023-03-02T05:13:35.728Z,32.21
2023-03-02T05:16:02.619Z,32.11
2023-03-02T05:18:29.438Z,31.92
2023-03-02T05:20:56.078Z,32.22
2023-03-02T05:23:27.559Z,32.14
2023-03-02T05:25:55.879Z,31.92
2023-03-02T05:28:24.381Z,31.92
2023-03-02T05:30:51.558Z,31.95
2023-03-02T05:33:19.236Z,31.93
2023-03-02T05:35:46.595Z,32.13
2023-03-02T05:38:13.577Z,31.90
2023-03-02T05:40:42.619Z,32.36
2023-03-02T05:43:10.766Z,32.52
2023-03-02T05:45:38.778Z,32.75
2023-03-02T05:48:06.211Z,32.46
2023-03-02T05:50:33.501Z,32.47
2023-03-02T05:53:02.432Z,32.40
2023-03-02T05:55:29.741Z,32.35
2023-03-02T05:57:56.968Z,32.56
2023-03-02T06:00:23.890Z,32.35
2023-03-02T06:02:50.453Z,32.44
2023-03-02T06:05:19.427Z,32.29
2023-03-02T06:07:46.353Z,32.37
2023-03-02T06:10:13.983Z,32.21
2023-03-02T06:12:40.801Z,32.42
2023-03-02T06:15:07.959Z,32.35
2023-03-02T06:17:35.127Z,32.31
2023-03-02T06:20:02.086Z,32.39
2023-03-02T06:22:28.578Z,32.29
2023-03-02T06:24:57.885Z,32.47
2023-03-02T06:27:24.424Z,32.58
2023-03-02T06:29:51.002Z,32.52
2023-03-02T06:32:17.709Z,32.45
2023-03-02T06:34:44.348Z,32.52
2023-03-02T06:37:11.153Z,32.55
2023-03-02T06:39:37.807Z,32.55
2023-03-02T06:42:04.430Z,32.51
2023-03-02T06:44:31.026Z,32.54
2023-03-02T06:46:57.553Z,32.44
2023-03-02T06:49:24.891Z,32.40
2023-03-02T06:51:51.580Z,32.48
2023-03-02T06:54:18.264Z,32.49
2023-03-02T06:56:44.824Z,32.43
2023-03-02T06:59:11.336Z,32.37
2023-03-02T07:01:37.874Z,32.46
2023-03-02T07:04:04.512Z,32.44
2023-03-02T07:06:31.235Z,32.46
2023-03-02T07:08:57.708Z,32.50
2023-03-02T07:11:24.203Z,32.33
2023-03-02T07:13:51.412Z,32.53
2023-03-02T07:16:18.055Z,32.27
2023-03-02T07:18:44.654Z,32.37
2023-03-02T07:21:11.242Z,32.35
2023-03-02T07:23:37.838Z,32.48
2023-03-02T07:26:08.457Z,32.47
2023-03-02T07:28:40.170Z,32.36
2023-03-02T07:31:07.673Z,32.36
2023-03-02T07:33:34.678Z,32.34
2023-03-02T07:36:01.506Z,32.34
2023-03-02T07:38:28.420Z,32.46
2023-03-02T07:40:55.383Z,32.36
2023-03-02T07:43:24.096Z,32.41
2023-03-02T07:45:50.655Z,32.46
2023-03-02T07:48:18.067Z,32.52
2023-03-02T07:50:44.638Z,32.49
2023-03-02T07:53:11.197Z,32.38
2023-03-02T07:55:41.231Z,32.35
2023-03-02T07:58:08.096Z,32.54
2023-03-02T08:00:36.746Z,32.49
2023-03-02T08:03:03.401Z,32.79
2023-03-02T08:05:30.961Z,32.88
2023-03-02T08:07:57.682Z,32.79
2023-03-02T08:10:24.224Z,32.55
2023-03-02T08:12:50.813Z,32.83
2023-03-02T08:15:17.468Z,32.93
2023-03-02T08:17:44.942Z,32.86
2023-03-02T08:20:12.273Z,32.53
2023-03-02T08:22:38.885Z,32.79
2023-03-02T08:25:07.404Z,32.81
2023-03-02T08:27:33.984Z,32.79
2023-03-02T08:30:00.612Z,32.84
2023-03-02T08:32:27.420Z,32.95
2023-03-02T08:34:54.088Z,32.92
2023-03-02T08:37:20.632Z,32.85
2023-03-02T08:39:47.302Z,33.17
2023-03-02T08:42:13.933Z,33.12
2023-03-02T08:44:40.592Z,33.04
2023-03-02T08:47:07.103Z,33.17
2023-03-02T08:49:33.652Z,33.26
2023-03-02T08:52:00.697Z,33.12
2023-03-02T08:54:27.329Z,33.33
2023-03-02T08:56:53.839Z,33.18
2023-03-02T08:59:21.669Z,33.17
2023-03-02T09:01:48.361Z,33.33
2023-03-02T09:04:15.056Z,33.19
2023-03-02T09:06:43.432Z,33.13
2023-03-02T09:09:15.242Z,33.27
2023-03-02T09:11:42.412Z,33.27
2023-03-02T09:14:09.659Z,33.20
2023-03-02T09:16:36.256Z,33.26
2023-03-02T09:19:02.980Z,33.25
2023-03-02T09:21:29.615Z,33.27
2023-03-02T09:23:58.083Z,33.38
2023-03-02T09:26:26.726Z,33.30
2023-03-02T09:28:53.534Z,33.37
2023-03-02T09:31:20.345Z,33.39
2023-03-02T09:33:46.956Z,33.24
2023-03-02T09:36:19.606Z,33.32
2023-03-02T09:38:46.473Z,33.31
2023-03-02T09:41:19.386Z,33.25
2023-03-02T09:44:10.594Z,33.46
2023-03-02T09:47:02.305Z,33.19
2023-03-02T09:49:55.284Z,33.32
2023-03-02T09:52:36.838Z,33.36
2023-03-02T09:55:16.770Z,33.39
2023-03-02T09:57:44.181Z,33.43
2023-03-02T10:00:27.450Z,33.39
2023-03-02T10:03:16.267Z,33.22
2023-03-02T10:05:49.315Z,33.53
2023-03-02T10:08:37.545Z,33.49
2023-03-02T10:11:22.377Z,33.27
2023-03-02T10:13:59.593Z,33.22
2023-03-02T10:16:48.665Z,33.67
2023-03-02T10:19:25.247Z,35.43
2023-03-02T10:22:03.353Z,35.33
2023-03-02T10:24:39.571Z,36.39
2023-03-02T10:27:26.431Z,39.33
2023-03-02T10:30:06.501Z,41.21
2023-03-02T10:32:37.805Z,41.39
2023-03-02T10:35:16.380Z,40.87
2023-03-02T10:37:43.000Z,40.16
2023-03-02T10:40:56.987Z,39.93
2023-03-02T10:43:31.732Z,39.97
2023-03-02T10:46:03.725Z,40.11
2023-03-02T10:48:30.748Z,40.16
2023-03-02T10:50:59.077Z,40.30
2023-03-02T10:53:26.016Z,40.28
2023-03-02T10:55:53.905Z,40.06
2023-03-02T10:58:29.413Z,39.81
2023-03-02T11:00:58.451Z,39.71
2023-03-02T11:03:25.433Z,39.67
2023-03-02T11:05:52.296Z,39.39
2023-03-02T11:08:22.710Z,38.98
2023-03-02T11:10:59.824Z,38.98
2023-03-02T11:13:39.008Z,38.75
2023-03-02T11:16:28.444Z,38.41
2023-03-02T11:19:00.321Z,38.44
2023-03-02T11:21:57.031Z,38.11
2023-03-02T11:24:33.591Z,38.14
2023-03-02T11:27:06.065Z,37.94
2023-03-02T11:29:47.521Z,37.81
2023-03-02T11:32:32.158Z,37.38
2023-03-02T11:35:04.728Z,37.25
2023-03-02T11:37:45.170Z,37.04
2023-03-02T11:40:26.510Z,36.99
2023-03-02T11:42:58.343Z,36.89
2023-03-02T11:45:46.565Z,36.92
2023-03-02T11:48:27.155Z,37.37
2023-03-02T11:50:56.413Z,37.41
2023-03-02T11:53:27.357Z,37.42
2023-03-02T11:55:53.977Z,37.64
2023-03-02T11:58:24.650Z,37.29
2023-03-02T12:00:52.172Z,37.25
2023-03-02T12:03:32.048Z,37.05
2023-03-02T12:06:00.908Z,36.98
2023-03-02T12:08:27.436Z,36.72
2023-03-02T12:11:05.780Z,36.62
2023-03-02T12:13:32.279Z,36.59
2023-03-02T12:15:58.993Z,36.49
2023-03-02T12:18:25.580Z,36.50
2023-03-02T12:21:18.538Z,36.27
2023-03-02T12:23:51.067Z,36.19
2023-03-02T12:26:20.673Z,36.20
2023-03-02T12:29:11.652Z,36.14
2023-03-02T12:31:46.301Z,36.04
2023-03-02T12:34:25.192Z,36.00
2023-03-02T12:36:59.678Z,35.89
2023-03-02T12:39:40.567Z,35.84
2023-03-02T12:42:31.959Z,35.84
2023-03-02T12:45:23.243Z,35.80
2023-03-02T12:47:57.038Z,35.81
2023-03-02T12:50:27.733Z,35.78
2023-03-02T12:53:03.214Z,35.67
2023-03-02T12:55:30.392Z,35.48
2023-03-02T12:58:01.250Z,35.35
2023-03-02T13:00:31.723Z,35.38
2023-03-02T13:02:58.872Z,35.52
2023-03-02T13:05:29.209Z,35.53
2023-03-02T13:08:04.954Z,35.72
2023-03-02T13:10:36.153Z,35.46
2023-03-02T13:13:14.479Z,35.44
2023-03-02T13:15:53.787Z,35.51
2023-03-02T13:18:25.702Z,35.56
2023-03-02T13:20:52.968Z,35.44
2023-03-02T13:23:20.174Z,35.33
2023-03-02T13:26:16.793Z,35.42
2023-03-02T13:28:43.386Z,35.29
2023-03-02T13:31:23.374Z,35.38
2023-03-02T13:33:52.409Z,35.41
2023-03-02T13:36:26.045Z,35.27
2023-03-02T13:38:56.137Z,35.28
2023-03-02T13:41:34.639Z,35.26
2023-03-02T13:44:19.834Z,35.08
2023-03-02T13:46:47.615Z,34.90
2023-03-02T13:49:14.271Z,34.96
2023-03-02T13:51:47.287Z,35.03
2023-03-02T13:54:22.540Z,35.18
2023-03-02T13:56:51.196Z,35.10
2023-03-02T13:59:19.380Z,35.09
2023-03-02T14:01:46.326Z,34.91
2023-03-02T14:04:14.810Z,34.99
2023-03-02T14:06:41.416Z,34.69
2023-03-02T14:09:08.032Z,34.91
2023-03-02T14:11:41.652Z,34.66
2023-03-02T14:14:12.404Z,34.90
2023-03-02T14:16:38.904Z,34.92
2023-03-02T14:19:05.443Z,34.82
2023-03-02T14:21:32.388Z,34.92
2023-03-02T14:23:59.224Z,34.80
2023-03-02T14:26:38.317Z,34.94
2023-03-02T14:29:22.472Z,35.05
2023-03-02T14:31:49.362Z,34.72
2023-03-02T14:34:17.465Z,34.94
2023-03-02T14:36:46.781Z,34.54
2023-03-02T14:39:37.546Z,34.33
2023-03-02T14:42:05.589Z,34.19
2023-03-02T14:44:32.642Z,34.97
2023-03-02T14:46:59.144Z,34.71
2023-03-02T14:49:25.734Z,34.83
2023-03-02T14:51:59.058Z,34.27
2023-03-02T14:54:26.528Z,34.25
2023-03-02T14:56:53.397Z,34.28
2023-03-02T14:59:19.966Z,34.25
2023-03-02T15:01:46.580Z,34.33
2023-03-02T15:04:13.151Z,34.60
2023-03-02T15:06:43.079Z,34.29
2023-03-02T15:09:11.095Z,34.04
2023-03-02T15:11:37.780Z,34.21
2023-03-02T15:14:04.354Z,34.29
2023-03-02T15:16:30.996Z,34.07
2023-03-02T15:18:58.903Z,33.92
2023-03-02T15:21:25.777Z,34.06
2023-03-02T15:23:52.331Z,33.70
2023-03-02T15:26:18.957Z,33.89
2023-03-02T15:28:45.715Z,33.90
2023-03-02T15:31:17.190Z,33.92
2023-03-02T15:33:45.554Z,33.80
2023-03-02T15:36:13.282Z,33.88
2023-03-02T15:38:39.957Z,33.97
2023-03-02T15:41:13.300Z,33.95
2023-03-02T15:43:39.964Z,34.06
2023-03-02T15:46:09.132Z,34.14
2023-03-02T15:48:35.855Z,34.13
2023-03-02T15:51:05.467Z,34.10
2023-03-02T15:53:36.769Z,34.55
2023-03-02T15:56:09.637Z,34.19
2023-03-02T15:58:36.743Z,34.19
2023-03-02T16:01:08.135Z,34.55
2023-03-02T16:03:34.785Z,34.37
2023-03-02T16:06:01.440Z,34.37
2023-03-02T16:08:28.047Z,34.43
2023-03-02T16:11:02.260Z,34.17
2023-03-02T16:13:30.480Z,34.20
2023-03-02T16:15:57.356Z,34.46
2023-03-02T16:18:23.986Z,34.38
2023-03-02T16:20:50.586Z,34.31
2023-03-02T16:23:17.109Z,34.34
2023-03-02T16:25:44.453Z,34.52
2023-03-02T16:28:12.064Z,34.39
2023-03-02T16:30:39.700Z,34.49
2023-03-02T16:33:09.949Z,34.30
2023-03-02T16:35:37.433Z,34.32
2023-03-02T16:38:05.718Z,34.39
2023-03-02T16:40:33.491Z,34.46
2023-03-02T16:43:00.092Z,34.35
2023-03-02T16:45:27.040Z,34.38
2023-03-02T16:47:53.921Z,34.46
2023-03-02T16:50:20.871Z,34.33
2023-03-02T16:52:47.417Z,34.27
2023-03-02T16:55:17.585Z,34.25
2023-03-02T16:57:44.587Z,34.32
2023-03-02T17:00:15.407Z,34.37
2023-03-02T17:02:42.280Z,34.34
2023-03-02T17:05:10.097Z,34.34
2023-03-02T17:07:36.687Z,34.31
2023-03-02T17:10:03.896Z,34.27
2023-03-02T17:12:30.435Z,34.10
2023-03-02T17:14:56.926Z,34.31
2023-03-02T17:17:23.471Z,34.46
2023-03-02T17:19:50.092Z,34.56
2023-03-02T17:22:17.352Z,34.57
2023-03-02T17:24:43.851Z,34.74
2023-03-02T17:27:23.781Z,34.82
2023-03-02T17:29:52.160Z,34.95
2023-03-02T17:32:19.006Z,34.80
2023-03-02T17:34:45.606Z,34.85
2023-03-02T17:37:12.136Z,34.95
2023-03-02T17:39:39.007Z,35.09
2023-03-02T17:42:06.270Z,35.16
2023-03-02T17:44:34.561Z,35.08
2023-03-02T17:47:03.953Z,35.16
2023-03-02T17:49:31.168Z,35.10
2023-03-02T17:51:57.878Z,35.03
2023-03-02T17:54:24.452Z,35.08
2023-03-02T17:56:51.025Z,35.09
2023-03-02T17:59:17.859Z,35.09
2023-03-02T18:01:44.565Z,34.98
2023-03-02T18:04:11.327Z,35.18
2023-03-02T18:06:37.908Z,35.05
2023-03-02T18:09:04.528Z,34.90
2023-03-02T18:11:31.194Z,35.03
2023-03-02T18:13:58.490Z,34.99
2023-03-02T18:16:27.966Z,35.03
2023-03-02T18:18:55.782Z,34.98
2023-03-02T18:21:22.986Z,34.96
2023-03-02T18:23:49.580Z,35.00
2023-03-02T18:26:16.631Z,34.92
2023-03-02T18:28:43.230Z,34.95
2023-03-02T18:31:13.191Z,34.90
2023-03-02T18:33:39.909Z,35.06
2023-03-02T18:36:06.730Z,34.94
2023-03-02T18:38:34.799Z,34.87
2023-03-02T18:41:03.580Z,34.86
2023-03-02T18:43:34.786Z,35.02
2023-03-02T18:46:10.430Z,34.85
2023-03-02T18:48:39.563Z,34.84
2023-03-02T18:51:06.153Z,34.93
2023-03-02T18:53:32.958Z,34.97
2023-03-02T18:55:59.517Z,34.82
2023-03-02T18:58:26.146Z,34.93
2023-03-02T19:00:54.294Z,34.99
2023-03-02T19:03:21.009Z,34.93
2023-03-02T19:05:47.573Z,34.94
2023-03-02T19:08:14.102Z,34.94
2023-03-02T19:10:42.607Z,34.89
2023-03-02T19:13:11.639Z,34.90
2023-03-02T19:15:41.845Z,34.81
2023-03-02T19:18:08.687Z,34.82
2023-03-02T19:20:35.469Z,34.82
2023-03-02T19:23:02.264Z,34.78
2023-03-02T19:25:28.862Z,34.85
2023-03-02T19:27:55.480Z,34.79
2023-03-02T19:30:25.308Z,34.86
2023-03-02T19:32:53.954Z,34.74
2023-03-02T19:35:23.188Z,34.78
2023-03-02T19:37:49.864Z,34.76
2023-03-02T19:40:18.964Z,34.59
2023-03-02T19:42:46.400Z,34.72
2023-03-02T19:45:20.947Z,34.68
2023-03-02T19:47:48.122Z,34.71
2023-03-02T19:50:17.048Z,34.74
2023-03-02T19:52:43.658Z,34.68
2023-03-02T19:55:13.055Z,34.62
2023-03-02T19:57:40.472Z,34.66
2023-03-02T20:00:14.532Z,34.59
2023-03-02T20:02:41.111Z,34.75
2023-03-02T20:05:09.132Z,34.72
2023-03-02T20:07:36.440Z,34.57
2023-03-02T20:10:04.709Z,34.67
2023-03-02T20:12:31.310Z,34.53
2023-03-02T20:14:57.893Z,34.56
2023-03-02T20:17:24.468Z,34.59
2023-03-02T20:19:51.655Z,34.58
2023-03-02T20:22:18.428Z,34.51
2023-03-02T20:24:45.025Z,34.71
2023-03-02T20:27:12.551Z,34.62
2023-03-02T20:29:41.387Z,34.60
2023-03-02T20:32:10.010Z,34.47
2023-03-02T20:34:39.383Z,34.52
2023-03-02T20:37:07.402Z,34.50
2023-03-02T20:39:37.115Z,34.51
2023-03-02T20:42:04.826Z,34.37
2023-03-02T20:44:31.470Z,34.57
2023-03-02T20:47:02.350Z,34.53
2023-03-02T20:49:30.990Z,34.58
2023-03-02T20:51:59.573Z,34.57
2023-03-02T20:54:30.833Z,34.51
2023-03-02T20:56:58.712Z,34.48
2023-03-02T20:59:26.227Z,34.27
2023-03-02T21:01:52.787Z,34.46
2023-03-02T21:04:19.693Z,34.60
2023-03-02T21:06:46.600Z,34.65
2023-03-02T21:09:14.489Z,34.59
2023-03-02T21:11:41.218Z,34.61
2023-03-02T21:14:08.033Z,34.56
2023-03-02T21:16:38.447Z,34.67
2023-03-02T21:19:08.699Z,34.60
2023-03-02T21:21:41.730Z,34.54
2023-03-02T21:24:16.868Z,34.64
2023-03-02T21:26:45.419Z,34.52
2023-03-02T21:29:13.077Z,34.48
2023-03-02T21:31:42.185Z,34.50
2023-03-02T21:34:08.745Z,34.68
2023-03-02T21:36:35.481Z,34.79
2023-03-02T21:39:02.611Z,34.82
2023-03-02T21:41:29.174Z,34.81
2023-03-02T21:43:55.787Z,34.93
2023-03-02T21:46:23.277Z,34.82
2023-03-02T21:48:51.187Z,34.99
2023-03-02T21:51:18.502Z,34.92
2023-03-02T21:53:45.037Z,34.72
2023-03-02T21:56:20.566Z,34.81
2023-03-02T21:58:55.888Z,34.78
2023-03-02T22:01:23.928Z,34.62
2023-03-02T22:03:50.523Z,34.74
2023-03-02T22:06:20.468Z,34.56
2023-03-02T22:08:47.692Z,34.61
2023-03-02T22:11:21.679Z,34.58
2023-03-02T22:13:52.597Z,34.39
2023-03-02T22:16:22.060Z,34.57
2023-03-02T22:18:53.476Z,34.46
2023-03-02T22:21:34.560Z,34.49
2023-03-02T22:24:17.536Z,34.39
2023-03-02T22:26:45.643Z,34.31
2023-03-02T22:29:16.627Z,34.43
2023-03-02T22:31:47.156Z,34.33
2023-03-02T22:34:15.714Z,34.20
2023-03-02T22:36:42.360Z,34.30
2023-03-02T22:39:17.965Z,34.30
2023-03-02T22:41:44.517Z,34.09
2023-03-02T22:44:13.692Z,34.18
2023-03-02T22:46:41.281Z,34.08
2023-03-02T22:49:16.546Z,34.17
2023-03-02T22:51:44.962Z,33.87
2023-03-02T22:54:21.784Z,34.08
2023-03-02T22:56:52.351Z,33.86
2023-03-02T22:59:21.667Z,33.90
2023-03-02T23:01:49.017Z,33.82
2023-03-02T23:04:45.710Z,33.91
2023-03-02T23:07:20.122Z,33.86
2023-03-02T23:09:47.756Z,33.88
2023-03-02T23:12:20.285Z,33.68
2023-03-02T23:14:51.070Z,33.69
2023-03-02T23:17:37.118Z,33.71
2023-03-02T23:20:06.539Z,33.74
2023-03-02T23:24:59.543Z,33.76
2023-03-02T23:27:26.137Z,33.68
2023-03-02T23:29:53.094Z,33.48
2023-03-02T23:32:19.934Z,33.63
2023-03-02T23:34:46.646Z,33.66
2023-03-02T23:37:13.204Z,33.56
2023-03-02T23:39:39.731Z,33.55
2023-03-02T23:42:06.322Z,33.50
2023-03-02T23:44:32.853Z,33.52
2023-03-02T23:46:59.505Z,33.53
2023-03-02T23:49:26.054Z,33.53
2023-03-02T23:51:52.672Z,33.59
2023-03-02T23:54:19.268Z,33.46
2023-03-02T23:56:45.792Z,33.65
2023-03-02T23:59:12.339Z,33.55
